sensor_id;sensor_type;location;lat;lon;timestamp;P1;durP1;ratioP1;P2;durP2;ratioP2
3795;SDS011;1913;50.660;7.834;2023-04-25T00:01:28;14.87;;;6.57;;
3795;SDS011;1913;50.660;7.834;2023-04-25T00:03:53;12.50;;;6.80;;
3795;SDS011;1913;50.660;7.834;2023-04-25T00:06:19;14.93;;;7.47;;
3795;SDS011;1913;50.660;7.834;2023-04-25T00:08:45;13.43;;;6.60;;
3795;SDS011;1913;50.660;7.834;2023-04-25T00:11:10;13.60;;;7.00;;
3795;SDS011;1913;50.660;7.834;2023-04-25T00:13:35;12.83;;;7.30;;
3795;SDS011;1913;50.660;7.834;2023-04-25T00:16:01;23.30;;;7.40;;
3795;SDS011;1913;50.660;7.834;2023-04-25T00:18:27;14.47;;;6.70;;
3795;SDS011;1913;50.660;7.834;2023-04-25T00:20:58;14.10;;;7.47;;
3795;SDS011;1913;50.660;7.834;2023-04-25T00:23:23;13.03;;;6.57;;
3795;SDS011;1913;50.660;7.834;2023-04-25T00:25:49;17.93;;;7.50;;
3795;SDS011;1913;50.660;7.834;2023-04-25T00:28:15;14.60;;;7.00;;
3795;SDS011;1913;50.660;7.834;2023-04-25T00:30:40;15.37;;;7.97;;
3795;SDS011;1913;50.660;7.834;2023-04-25T00:33:07;13.67;;;7.37;;
3795;SDS011;1913;50.660;7.834;2023-04-25T00:35:33;15.60;;;7.30;;
3795;SDS011;1913;50.660;7.834;2023-04-25T00:37:59;15.80;;;7.90;;
3795;SDS011;1913;50.660;7.834;2023-04-25T00:40:25;16.63;;;7.77;;
3795;SDS011;1913;50.660;7.834;2023-04-25T00:42:51;16.80;;;7.40;;
3795;SDS011;1913;50.660;7.834;2023-04-25T00:45:17;24.33;;;8.70;;
3795;SDS011;1913;50.660;7.834;2023-04-25T00:47:43;26.40;;;10.07;;
3795;SDS011;1913;50.660;7.834;2023-04-25T00:50:09;20.73;;;10.37;;
3795;SDS011;1913;50.660;7.834;2023-04-25T00:52:36;18.67;;;10.07;;
3795;SDS011;1913;50.660;7.834;2023-04-25T00:55:03;18.83;;;10.63;;
3795;SDS011;1913;50.660;7.834;2023-04-25T00:57:29;20.33;;;9.83;;
3795;SDS011;1913;50.660;7.834;2023-04-25T00:59:55;21.30;;;10.43;;
3795;SDS011;1913;50.660;7.834;2023-04-25T01:02:21;18.00;;;9.53;;
3795;SDS011;1913;50.660;7.834;2023-04-25T01:04:47;16.53;;;9.63;;
3795;SDS011;1913;50.660;7.834;2023-04-25T01:07:13;20.70;;;9.90;;
3795;SDS011;1913;50.660;7.834;2023-04-25T01:09:40;18.70;;;9.63;;
3795;SDS011;1913;50.660;7.834;2023-04-25T01:12:06;22.80;;;9.90;;
3795;SDS011;1913;50.660;7.834;2023-04-25T01:14:32;24.17;;;11.03;;
3795;SDS011;1913;50.660;7.834;2023-04-25T01:16:57;17.10;;;9.33;;
3795;SDS011;1913;50.660;7.834;2023-04-25T01:19:23;17.57;;;9.83;;
3795;SDS011;1913;50.660;7.834;2023-04-25T01:21:49;18.23;;;10.30;;
3795;SDS011;1913;50.660;7.834;2023-04-25T01:24:15;31.33;;;9.80;;
3795;SDS011;1913;50.660;7.834;2023-04-25T01:26:41;21.57;;;10.27;;
3795;SDS011;1913;50.660;7.834;2023-04-25T01:29:10;19.97;;;10.70;;
3795;SDS011;1913;50.660;7.834;2023-04-25T01:31:35;23.37;;;10.83;;
3795;SDS011;1913;50.660;7.834;2023-04-25T01:34:01;21.77;;;10.77;;
3795;SDS011;1913;50.660;7.834;2023-04-25T01:36:27;19.23;;;11.23;;
3795;SDS011;1913;50.660;7.834;2023-04-25T01:38:53;23.13;;;12.43;;
3795;SDS011;1913;50.660;7.834;2023-04-25T01:41:18;25.43;;;11.40;;
3795;SDS011;1913;50.660;7.834;2023-04-25T01:43:44;23.07;;;11.97;;
3795;SDS011;1913;50.660;7.834;2023-04-25T01:46:10;28.23;;;11.10;;
3795;SDS011;1913;50.660;7.834;2023-04-25T01:48:36;22.80;;;11.90;;
3795;SDS011;1913;50.660;7.834;2023-04-25T01:51:02;31.10;;;12.07;;
3795;SDS011;1913;50.660;7.834;2023-04-25T01:53:27;33.80;;;12.10;;
3795;SDS011;1913;50.660;7.834;2023-04-25T01:55:53;32.57;;;11.53;;
3795;SDS011;1913;50.660;7.834;2023-04-25T01:58:18;24.77;;;12.30;;
3795;SDS011;1913;50.660;7.834;2023-04-25T02:00:44;26.00;;;11.90;;
3795;SDS011;1913;50.660;7.834;2023-04-25T02:03:09;27.90;;;11.10;;
3795;SDS011;1913;50.660;7.834;2023-04-25T02:05:35;28.40;;;12.73;;
3795;SDS011;1913;50.660;7.834;2023-04-25T02:08:02;35.83;;;14.30;;
3795;SDS011;1913;50.660;7.834;2023-04-25T02:10:28;40.93;;;14.10;;
3795;SDS011;1913;50.660;7.834;2023-04-25T02:12:54;33.57;;;13.40;;
3795;SDS011;1913;50.660;7.834;2023-04-25T02:15:19;26.97;;;13.50;;
3795;SDS011;1913;50.660;7.834;2023-04-25T02:17:45;35.20;;;13.50;;
3795;SDS011;1913;50.660;7.834;2023-04-25T02:20:11;30.97;;;14.37;;
3795;SDS011;1913;50.660;7.834;2023-04-25T02:22:36;37.07;;;13.47;;
3795;SDS011;1913;50.660;7.834;2023-04-25T02:25:02;30.20;;;12.50;;
3795;SDS011;1913;50.660;7.834;2023-04-25T02:27:29;27.73;;;11.70;;
3795;SDS011;1913;50.660;7.834;2023-04-25T02:29:55;38.27;;;12.27;;
3795;SDS011;1913;50.660;7.834;2023-04-25T02:32:20;35.03;;;12.93;;
3795;SDS011;1913;50.660;7.834;2023-04-25T02:34:46;31.93;;;12.63;;
3795;SDS011;1913;50.660;7.834;2023-04-25T02:37:11;32.93;;;12.00;;
3795;SDS011;1913;50.660;7.834;2023-04-25T02:39:37;27.20;;;11.33;;
3795;SDS011;1913;50.660;7.834;2023-04-25T02:42:02;30.23;;;12.83;;
3795;SDS011;1913;50.660;7.834;2023-04-25T02:44:28;34.20;;;12.37;;
3795;SDS011;1913;50.660;7.834;2023-04-25T02:46:53;35.33;;;12.10;;
3795;SDS011;1913;50.660;7.834;2023-04-25T02:49:19;26.93;;;11.80;;
3795;SDS011;1913;50.660;7.834;2023-04-25T02:51:44;34.40;;;11.70;;
3795;SDS011;1913;50.660;7.834;2023-04-25T02:54:10;26.83;;;10.40;;
3795;SDS011;1913;50.660;7.834;2023-04-25T02:56:35;28.13;;;11.50;;
3795;SDS011;1913;50.660;7.834;2023-04-25T02:59:01;28.10;;;10.90;;
3795;SDS011;1913;50.660;7.834;2023-04-25T03:01:29;21.90;;;9.50;;
3795;SDS011;1913;50.660;7.834;2023-04-25T03:03:54;26.03;;;9.70;;
3795;SDS011;1913;50.660;7.834;2023-04-25T03:06:20;37.37;;;11.60;;
3795;SDS011;1913;50.660;7.834;2023-04-25T03:08:45;23.53;;;10.30;;
3795;SDS011;1913;50.660;7.834;2023-04-25T03:11:10;28.43;;;10.57;;
3795;SDS011;1913;50.660;7.834;2023-04-25T03:13:36;27.00;;;10.50;;
3795;SDS011;1913;50.660;7.834;2023-04-25T03:16:01;32.90;;;10.20;;
3795;SDS011;1913;50.660;7.834;2023-04-25T03:18:27;24.47;;;10.40;;
3795;SDS011;1913;50.660;7.834;2023-04-25T03:20:52;21.07;;;10.47;;
3795;SDS011;1913;50.660;7.834;2023-04-25T03:23:18;26.67;;;10.70;;
3795;SDS011;1913;50.660;7.834;2023-04-25T03:25:43;26.47;;;8.97;;
3795;SDS011;1913;50.660;7.834;2023-04-25T03:28:08;39.40;;;9.77;;
3795;SDS011;1913;50.660;7.834;2023-04-25T03:30:34;29.60;;;10.27;;
3795;SDS011;1913;50.660;7.834;2023-04-25T03:32:59;23.70;;;9.80;;
3795;SDS011;1913;50.660;7.834;2023-04-25T03:35:24;24.83;;;9.90;;
3795;SDS011;1913;50.660;7.834;2023-04-25T03:37:50;30.60;;;10.33;;
3795;SDS011;1913;50.660;7.834;2023-04-25T03:40:15;25.60;;;9.70;;
3795;SDS011;1913;50.660;7.834;2023-04-25T03:42:41;32.57;;;10.97;;
3795;SDS011;1913;50.660;7.834;2023-04-25T03:45:06;27.33;;;10.50;;
3795;SDS011;1913;50.660;7.834;2023-04-25T03:47:32;28.57;;;10.07;;
3795;SDS011;1913;50.660;7.834;2023-04-25T03:49:58;29.07;;;9.53;;
3795;SDS011;1913;50.660;7.834;2023-04-25T03:52:25;29.57;;;10.70;;
3795;SDS011;1913;50.660;7.834;2023-04-25T03:54:51;29.57;;;11.43;;
3795;SDS011;1913;50.660;7.834;2023-04-25T03:57:16;30.50;;;12.00;;
3795;SDS011;1913;50.660;7.834;2023-04-25T03:59:41;35.97;;;12.03;;
3795;SDS011;1913;50.660;7.834;2023-04-25T04:02:07;28.03;;;9.70;;
3795;SDS011;1913;50.660;7.834;2023-04-25T04:04:32;25.10;;;11.17;;
3795;SDS011;1913;50.660;7.834;2023-04-25T04:06:58;38.10;;;11.90;;
3795;SDS011;1913;50.660;7.834;2023-04-25T04:09:23;44.17;;;13.77;;
3795;SDS011;1913;50.660;7.834;2023-04-25T04:11:49;41.30;;;12.20;;
3795;SDS011;1913;50.660;7.834;2023-04-25T04:14:15;30.20;;;11.90;;
3795;SDS011;1913;50.660;7.834;2023-04-25T04:16:44;27.83;;;11.83;;
3795;SDS011;1913;50.660;7.834;2023-04-25T04:19:09;44.67;;;12.60;;
3795;SDS011;1913;50.660;7.834;2023-04-25T04:21:35;35.17;;;12.43;;
3795;SDS011;1913;50.660;7.834;2023-04-25T04:24:01;38.13;;;11.40;;
3795;SDS011;1913;50.660;7.834;2023-04-25T04:26:26;30.20;;;11.47;;
3795;SDS011;1913;50.660;7.834;2023-04-25T04:28:52;28.90;;;12.00;;
3795;SDS011;1913;50.660;7.834;2023-04-25T04:31:19;29.67;;;11.20;;
3795;SDS011;1913;50.660;7.834;2023-04-25T04:33:46;38.87;;;13.57;;
3795;SDS011;1913;50.660;7.834;2023-04-25T04:36:12;39.80;;;14.50;;
3795;SDS011;1913;50.660;7.834;2023-04-25T04:38:38;36.60;;;13.93;;
3795;SDS011;1913;50.660;7.834;2023-04-25T04:41:04;46.03;;;14.97;;
3795;SDS011;1913;50.660;7.834;2023-04-25T04:43:29;47.83;;;14.83;;
3795;SDS011;1913;50.660;7.834;2023-04-25T04:45:55;34.70;;;13.40;;
3795;SDS011;1913;50.660;7.834;2023-04-25T04:48:23;38.03;;;12.90;;
3795;SDS011;1913;50.660;7.834;2023-04-25T04:50:49;40.07;;;12.43;;
3795;SDS011;1913;50.660;7.834;2023-04-25T04:53:14;35.27;;;12.23;;
3795;SDS011;1913;50.660;7.834;2023-04-25T04:55:40;31.60;;;12.70;;
3795;SDS011;1913;50.660;7.834;2023-04-25T04:58:08;33.73;;;11.73;;
3795;SDS011;1913;50.660;7.834;2023-04-25T05:00:33;40.70;;;12.47;;
3795;SDS011;1913;50.660;7.834;2023-04-25T05:02:59;36.83;;;12.43;;
3795;SDS011;1913;50.660;7.834;2023-04-25T05:05:24;28.93;;;12.10;;
3795;SDS011;1913;50.660;7.834;2023-04-25T05:07:50;35.33;;;13.00;;
3795;SDS011;1913;50.660;7.834;2023-04-25T05:10:16;30.63;;;11.33;;
3795;SDS011;1913;50.660;7.834;2023-04-25T05:12:43;26.17;;;11.90;;
3795;SDS011;1913;50.660;7.834;2023-04-25T05:15:09;46.27;;;11.67;;
3795;SDS011;1913;50.660;7.834;2023-04-25T05:17:35;26.23;;;10.97;;
3795;SDS011;1913;50.660;7.834;2023-04-25T05:20:01;33.43;;;11.40;;
3795;SDS011;1913;50.660;7.834;2023-04-25T05:22:28;28.00;;;11.20;;
3795;SDS011;1913;50.660;7.834;2023-04-25T05:24:53;31.10;;;11.23;;
3795;SDS011;1913;50.660;7.834;2023-04-25T05:27:19;24.77;;;10.30;;
3795;SDS011;1913;50.660;7.834;2023-04-25T05:29:45;24.30;;;9.87;;
3795;SDS011;1913;50.660;7.834;2023-04-25T05:32:10;27.37;;;9.70;;
3795;SDS011;1913;50.660;7.834;2023-04-25T05:34:36;27.03;;;11.37;;
3795;SDS011;1913;50.660;7.834;2023-04-25T05:37:01;24.10;;;10.80;;
3795;SDS011;1913;50.660;7.834;2023-04-25T05:39:27;29.93;;;11.37;;
3795;SDS011;1913;50.660;7.834;2023-04-25T05:41:53;27.57;;;10.60;;
3795;SDS011;1913;50.660;7.834;2023-04-25T05:44:18;26.30;;;11.17;;
3795;SDS011;1913;50.660;7.834;2023-04-25T05:46:44;26.13;;;11.23;;
3795;SDS011;1913;50.660;7.834;2023-04-25T05:49:10;26.27;;;10.43;;
3795;SDS011;1913;50.660;7.834;2023-04-25T05:51:35;27.37;;;10.30;;
3795;SDS011;1913;50.660;7.834;2023-04-25T05:54:00;29.17;;;11.03;;
3795;SDS011;1913;50.660;7.834;2023-04-25T05:56:26;26.17;;;11.13;;
3795;SDS011;1913;50.660;7.834;2023-04-25T05:58:51;26.70;;;10.50;;
3795;SDS011;1913;50.660;7.834;2023-04-25T06:01:17;24.60;;;11.53;;
3795;SDS011;1913;50.660;7.834;2023-04-25T06:03:42;26.70;;;13.20;;
3795;SDS011;1913;50.660;7.834;2023-04-25T06:06:08;28.53;;;12.03;;
3795;SDS011;1913;50.660;7.834;2023-04-25T06:08:34;22.93;;;10.57;;
3795;SDS011;1913;50.660;7.834;2023-04-25T06:10:59;29.20;;;9.80;;
3795;SDS011;1913;50.660;7.834;2023-04-25T06:13:25;29.67;;;10.00;;
3795;SDS011;1913;50.660;7.834;2023-04-25T06:15:50;15.77;;;8.80;;
3795;SDS011;1913;50.660;7.834;2023-04-25T06:18:16;19.33;;;8.70;;
3795;SDS011;1913;50.660;7.834;2023-04-25T06:20:42;21.30;;;10.33;;
3795;SDS011;1913;50.660;7.834;2023-04-25T06:23:07;25.00;;;10.77;;
3795;SDS011;1913;50.660;7.834;2023-04-25T06:25:33;23.87;;;10.20;;
3795;SDS011;1913;50.660;7.834;2023-04-25T06:27:58;35.60;;;11.03;;
3795;SDS011;1913;50.660;7.834;2023-04-25T06:30:23;27.37;;;10.30;;
3795;SDS011;1913;50.660;7.834;2023-04-25T06:32:51;19.80;;;10.60;;
3795;SDS011;1913;50.660;7.834;2023-04-25T06:35:18;20.33;;;9.27;;
3795;SDS011;1913;50.660;7.834;2023-04-25T06:37:44;22.07;;;11.07;;
3795;SDS011;1913;50.660;7.834;2023-04-25T06:40:09;23.33;;;10.80;;
3795;SDS011;1913;50.660;7.834;2023-04-25T06:42:35;20.70;;;10.33;;
3795;SDS011;1913;50.660;7.834;2023-04-25T06:45:00;26.63;;;11.07;;
3795;SDS011;1913;50.660;7.834;2023-04-25T06:47:26;28.80;;;11.07;;
3795;SDS011;1913;50.660;7.834;2023-04-25T06:49:51;24.43;;;11.20;;
3795;SDS011;1913;50.660;7.834;2023-04-25T06:52:16;22.47;;;10.93;;
3795;SDS011;1913;50.660;7.834;2023-04-25T06:54:43;28.37;;;10.97;;
3795;SDS011;1913;50.660;7.834;2023-04-25T06:57:08;25.67;;;11.70;;
3795;SDS011;1913;50.660;7.834;2023-04-25T06:59:34;27.77;;;12.67;;
3795;SDS011;1913;50.660;7.834;2023-04-25T07:01:59;24.73;;;10.70;;
3795;SDS011;1913;50.660;7.834;2023-04-25T07:04:24;31.50;;;11.87;;
3795;SDS011;1913;50.660;7.834;2023-04-25T07:06:50;23.87;;;11.30;;
3795;SDS011;1913;50.660;7.834;2023-04-25T07:09:16;32.40;;;11.80;;
3795;SDS011;1913;50.660;7.834;2023-04-25T07:11:41;19.60;;;10.80;;
3795;SDS011;1913;50.660;7.834;2023-04-25T07:14:07;29.27;;;11.73;;
3795;SDS011;1913;50.660;7.834;2023-04-25T07:16:33;21.80;;;10.60;;
3795;SDS011;1913;50.660;7.834;2023-04-25T07:18:58;26.50;;;10.77;;
3795;SDS011;1913;50.660;7.834;2023-04-25T07:21:27;16.20;;;9.87;;
3795;SDS011;1913;50.660;7.834;2023-04-25T07:23:52;27.63;;;10.83;;
3795;SDS011;1913;50.660;7.834;2023-04-25T07:26:17;18.37;;;8.37;;
3795;SDS011;1913;50.660;7.834;2023-04-25T07:28:43;18.60;;;8.23;;
3795;SDS011;1913;50.660;7.834;2023-04-25T07:31:08;22.37;;;10.07;;
3795;SDS011;1913;50.660;7.834;2023-04-25T07:33:34;17.73;;;8.80;;
3795;SDS011;1913;50.660;7.834;2023-04-25T07:36:00;12.83;;;8.10;;
3795;SDS011;1913;50.660;7.834;2023-04-25T07:38:25;17.57;;;8.13;;
3795;SDS011;1913;50.660;7.834;2023-04-25T07:40:51;17.53;;;8.23;;
3795;SDS011;1913;50.660;7.834;2023-04-25T07:43:16;23.40;;;8.37;;
3795;SDS011;1913;50.660;7.834;2023-04-25T07:45:42;19.67;;;7.40;;
3795;SDS011;1913;50.660;7.834;2023-04-25T07:48:08;13.13;;;7.10;;
3795;SDS011;1913;50.660;7.834;2023-04-25T07:50:34;14.33;;;7.97;;
3795;SDS011;1913;50.660;7.834;2023-04-25T07:52:59;17.73;;;7.60;;
3795;SDS011;1913;50.660;7.834;2023-04-25T07:55:25;22.83;;;7.50;;
3795;SDS011;1913;50.660;7.834;2023-04-25T07:57:51;20.60;;;7.10;;
3795;SDS011;1913;50.660;7.834;2023-04-25T08:00:16;15.93;;;7.60;;
3795;SDS011;1913;50.660;7.834;2023-04-25T08:02:42;15.60;;;7.27;;
3795;SDS011;1913;50.660;7.834;2023-04-25T08:05:08;15.20;;;7.03;;
3795;SDS011;1913;50.660;7.834;2023-04-25T08:07:36;15.23;;;6.47;;
3795;SDS011;1913;50.660;7.834;2023-04-25T08:10:03;17.07;;;6.30;;
3795;SDS011;1913;50.660;7.834;2023-04-25T08:12:29;18.17;;;6.63;;
3795;SDS011;1913;50.660;7.834;2023-04-25T08:14:54;15.73;;;6.50;;
3795;SDS011;1913;50.660;7.834;2023-04-25T08:17:20;11.10;;;5.90;;
3795;SDS011;1913;50.660;7.834;2023-04-25T08:19:45;15.17;;;6.93;;
3795;SDS011;1913;50.660;7.834;2023-04-25T08:22:10;16.50;;;6.17;;
3795;SDS011;1913;50.660;7.834;2023-04-25T08:24:36;13.50;;;6.43;;
3795;SDS011;1913;50.660;7.834;2023-04-25T08:27:01;15.57;;;5.77;;
3795;SDS011;1913;50.660;7.834;2023-04-25T08:29:27;19.77;;;5.77;;
3795;SDS011;1913;50.660;7.834;2023-04-25T08:31:53;21.17;;;5.77;;
3795;SDS011;1913;50.660;7.834;2023-04-25T08:34:18;9.67;;;5.53;;
3795;SDS011;1913;50.660;7.834;2023-04-25T08:36:45;16.00;;;5.20;;
3795;SDS011;1913;50.660;7.834;2023-04-25T08:39:10;22.53;;;5.33;;
3795;SDS011;1913;50.660;7.834;2023-04-25T08:41:39;10.23;;;5.37;;
3795;SDS011;1913;50.660;7.834;2023-04-25T08:44:05;14.23;;;5.23;;
3795;SDS011;1913;50.660;7.834;2023-04-25T08:46:34;10.47;;;5.00;;
3795;SDS011;1913;50.660;7.834;2023-04-25T08:49:03;20.83;;;5.67;;
3795;SDS011;1913;50.660;7.834;2023-04-25T08:51:30;16.80;;;5.40;;
3795;SDS011;1913;50.660;7.834;2023-04-25T08:53:57;15.90;;;5.60;;
3795;SDS011;1913;50.660;7.834;2023-04-25T08:56:47;13.20;;;5.70;;
3795;SDS011;1913;50.660;7.834;2023-04-25T08:59:13;11.50;;;5.73;;
3795;SDS011;1913;50.660;7.834;2023-04-25T09:01:39;15.20;;;5.33;;
3795;SDS011;1913;50.660;7.834;2023-04-25T09:04:04;14.30;;;5.60;;
3795;SDS011;1913;50.660;7.834;2023-04-25T09:06:30;19.20;;;6.17;;
3795;SDS011;1913;50.660;7.834;2023-04-25T09:09:06;13.17;;;5.47;;
3795;SDS011;1913;50.660;7.834;2023-04-25T09:11:33;15.80;;;5.27;;
3795;SDS011;1913;50.660;7.834;2023-04-25T09:19:24;12.67;;;5.83;;
3795;SDS011;1913;50.660;7.834;2023-04-25T09:21:50;12.47;;;5.33;;
3795;SDS011;1913;50.660;7.834;2023-04-25T09:27:08;12.07;;;5.50;;
3795;SDS011;1913;50.660;7.834;2023-04-25T09:29:36;11.53;;;5.60;;
3795;SDS011;1913;50.660;7.834;2023-04-25T09:32:19;15.10;;;5.67;;
3795;SDS011;1913;50.660;7.834;2023-04-25T09:34:46;17.23;;;6.20;;
3795;SDS011;1913;50.660;7.834;2023-04-25T09:39:47;11.93;;;5.10;;
3795;SDS011;1913;50.660;7.834;2023-04-25T09:42:15;10.37;;;3.90;;
3795;SDS011;1913;50.660;7.834;2023-04-25T09:44:45;12.30;;;3.70;;
3795;SDS011;1913;50.660;7.834;2023-04-25T09:47:14;11.50;;;3.40;;
3795;SDS011;1913;50.660;7.834;2023-04-25T09:49:42;7.47;;;3.20;;
3795;SDS011;1913;50.660;7.834;2023-04-25T09:52:09;6.77;;;2.93;;
3795;SDS011;1913;50.660;7.834;2023-04-25T09:54:39;8.37;;;3.60;;
3795;SDS011;1913;50.660;7.834;2023-04-25T09:57:15;9.53;;;3.30;;
3795;SDS011;1913;50.660;7.834;2023-04-25T09:59:51;7.50;;;3.53;;
3795;SDS011;1913;50.660;7.834;2023-04-25T10:02:19;10.43;;;3.07;;
3795;SDS011;1913;50.660;7.834;2023-04-25T10:04:47;9.00;;;3.37;;
3795;SDS011;1913;50.660;7.834;2023-04-25T10:07:14;10.47;;;3.47;;
3795;SDS011;1913;50.660;7.834;2023-04-25T10:09:39;11.43;;;3.70;;
3795;SDS011;1913;50.660;7.834;2023-04-25T10:12:06;10.73;;;2.97;;
3795;SDS011;1913;50.660;7.834;2023-04-25T10:14:32;7.90;;;3.30;;
3795;SDS011;1913;50.660;7.834;2023-04-25T10:16:59;11.47;;;2.63;;
3795;SDS011;1913;50.660;7.834;2023-04-25T10:19:26;14.97;;;3.73;;
3795;SDS011;1913;50.660;7.834;2023-04-25T10:22:02;7.03;;;3.23;;
3795;SDS011;1913;50.660;7.834;2023-04-25T10:24:31;7.83;;;3.43;;
3795;SDS011;1913;50.660;7.834;2023-04-25T10:26:57;7.10;;;3.10;;
3795;SDS011;1913;50.660;7.834;2023-04-25T10:29:26;9.27;;;4.47;;
3795;SDS011;1913;50.660;7.834;2023-04-25T10:31:52;15.30;;;4.17;;
3795;SDS011;1913;50.660;7.834;2023-04-25T10:34:18;10.73;;;3.90;;
3795;SDS011;1913;50.660;7.834;2023-04-25T10:36:53;9.30;;;3.30;;
3795;SDS011;1913;50.660;7.834;2023-04-25T10:39:22;9.90;;;3.50;;
3795;SDS011;1913;50.660;7.834;2023-04-25T10:44:20;10.27;;;4.63;;
3795;SDS011;1913;50.660;7.834;2023-04-25T10:46:46;22.07;;;4.97;;
3795;SDS011;1913;50.660;7.834;2023-04-25T10:49:27;11.33;;;5.10;;
3795;SDS011;1913;50.660;7.834;2023-04-25T10:54:41;11.50;;;3.60;;
3795;SDS011;1913;50.660;7.834;2023-04-25T10:57:32;9.30;;;3.03;;
3795;SDS011;1913;50.660;7.834;2023-04-25T11:00:09;10.53;;;3.10;;
3795;SDS011;1913;50.660;7.834;2023-04-25T11:05:23;13.37;;;3.20;;
3795;SDS011;1913;50.660;7.834;2023-04-25T11:08:08;14.20;;;3.17;;
3795;SDS011;1913;50.660;7.834;2023-04-25T11:10:36;11.47;;;3.40;;
3795;SDS011;1913;50.660;7.834;2023-04-25T11:13:02;11.33;;;3.30;;
3795;SDS011;1913;50.660;7.834;2023-04-25T11:15:28;8.57;;;3.17;;
3795;SDS011;1913;50.660;7.834;2023-04-25T11:17:54;11.83;;;3.07;;
3795;SDS011;1913;50.660;7.834;2023-04-25T11:20:20;6.70;;;3.00;;
3795;SDS011;1913;50.660;7.834;2023-04-25T11:22:47;7.33;;;3.00;;
3795;SDS011;1913;50.660;7.834;2023-04-25T11:25:13;8.07;;;2.80;;
3795;SDS011;1913;50.660;7.834;2023-04-25T11:27:50;11.03;;;4.00;;
3795;SDS011;1913;50.660;7.834;2023-04-25T11:30:20;9.83;;;3.23;;
3795;SDS011;1913;50.660;7.834;2023-04-25T11:32:46;8.03;;;2.80;;
3795;SDS011;1913;50.660;7.834;2023-04-25T11:35:12;7.60;;;3.00;;
3795;SDS011;1913;50.660;7.834;2023-04-25T11:37:41;5.73;;;3.00;;
3795;SDS011;1913;50.660;7.834;2023-04-25T11:40:08;6.23;;;2.80;;
3795;SDS011;1913;50.660;7.834;2023-04-25T11:42:38;7.60;;;3.33;;
3795;SDS011;1913;50.660;7.834;2023-04-25T11:45:05;12.23;;;3.53;;
3795;SDS011;1913;50.660;7.834;2023-04-25T11:47:32;13.03;;;3.87;;
3795;SDS011;1913;50.660;7.834;2023-04-25T11:49:58;6.53;;;2.63;;
3795;SDS011;1913;50.660;7.834;2023-04-25T11:52:25;17.00;;;3.47;;
3795;SDS011;1913;50.660;7.834;2023-04-25T11:55:00;12.77;;;3.40;;
3795;SDS011;1913;50.660;7.834;2023-04-25T11:57:25;9.40;;;3.27;;
3795;SDS011;1913;50.660;7.834;2023-04-25T11:59:51;12.87;;;2.90;;
3795;SDS011;1913;50.660;7.834;2023-04-25T12:02:26;7.30;;;2.40;;
3795;SDS011;1913;50.660;7.834;2023-04-25T12:04:51;9.87;;;2.87;;
3795;SDS011;1913;50.660;7.834;2023-04-25T12:07:17;6.30;;;2.53;;
3795;SDS011;1913;50.660;7.834;2023-04-25T12:09:50;10.07;;;2.67;;
3795;SDS011;1913;50.660;7.834;2023-04-25T12:12:17;7.73;;;2.87;;
3795;SDS011;1913;50.660;7.834;2023-04-25T12:14:45;5.57;;;2.43;;
3795;SDS011;1913;50.660;7.834;2023-04-25T12:17:13;9.20;;;2.63;;
3795;SDS011;1913;50.660;7.834;2023-04-25T12:19:38;4.87;;;2.63;;
3795;SDS011;1913;50.660;7.834;2023-04-25T12:22:18;6.67;;;2.50;;
3795;SDS011;1913;50.660;7.834;2023-04-25T12:24:46;8.10;;;2.90;;
3795;SDS011;1913;50.660;7.834;2023-04-25T12:27:13;8.33;;;2.90;;
3795;SDS011;1913;50.660;7.834;2023-04-25T12:29:55;7.13;;;3.30;;
3795;SDS011;1913;50.660;7.834;2023-04-25T12:32:21;10.87;;;3.57;;
3795;SDS011;1913;50.660;7.834;2023-04-25T12:34:47;11.40;;;2.90;;
3795;SDS011;1913;50.660;7.834;2023-04-25T12:37:12;6.43;;;3.47;;
3795;SDS011;1913;50.660;7.834;2023-04-25T12:39:38;11.33;;;3.57;;
3795;SDS011;1913;50.660;7.834;2023-04-25T12:42:04;7.27;;;3.77;;
3795;SDS011;1913;50.660;7.834;2023-04-25T12:44:30;8.63;;;3.23;;
3795;SDS011;1913;50.660;7.834;2023-04-25T12:46:55;6.97;;;3.17;;
3795;SDS011;1913;50.660;7.834;2023-04-25T12:49:21;7.93;;;3.47;;
3795;SDS011;1913;50.660;7.834;2023-04-25T12:51:47;8.67;;;3.73;;
3795;SDS011;1913;50.660;7.834;2023-04-25T12:54:12;7.60;;;2.70;;
3795;SDS011;1913;50.660;7.834;2023-04-25T12:56:39;15.17;;;3.00;;
3795;SDS011;1913;50.660;7.834;2023-04-25T12:59:05;6.87;;;2.80;;
3795;SDS011;1913;50.660;7.834;2023-04-25T13:01:31;6.27;;;2.23;;
3795;SDS011;1913;50.660;7.834;2023-04-25T13:03:57;7.80;;;2.40;;
3795;SDS011;1913;50.660;7.834;2023-04-25T13:06:22;3.87;;;2.17;;
3795;SDS011;1913;50.660;7.834;2023-04-25T13:08:48;6.97;;;2.67;;
3795;SDS011;1913;50.660;7.834;2023-04-25T13:11:13;5.07;;;2.00;;
3795;SDS011;1913;50.660;7.834;2023-04-25T13:13:42;9.63;;;4.13;;
3795;SDS011;1913;50.660;7.834;2023-04-25T13:16:09;7.13;;;2.20;;
3795;SDS011;1913;50.660;7.834;2023-04-25T13:18:34;7.80;;;2.80;;
3795;SDS011;1913;50.660;7.834;2023-04-25T13:21:00;7.87;;;2.50;;
3795;SDS011;1913;50.660;7.834;2023-04-25T13:23:26;11.27;;;3.20;;
3795;SDS011;1913;50.660;7.834;2023-04-25T13:25:53;4.87;;;2.60;;
3795;SDS011;1913;50.660;7.834;2023-04-25T13:28:20;8.10;;;3.10;;
3795;SDS011;1913;50.660;7.834;2023-04-25T13:30:46;9.30;;;3.00;;
3795;SDS011;1913;50.660;7.834;2023-04-25T13:33:13;13.07;;;5.23;;
3795;SDS011;1913;50.660;7.834;2023-04-25T13:35:39;6.67;;;2.60;;
3795;SDS011;1913;50.660;7.834;2023-04-25T13:38:05;7.10;;;2.93;;
3795;SDS011;1913;50.660;7.834;2023-04-25T13:40:31;10.87;;;2.90;;
3795;SDS011;1913;50.660;7.834;2023-04-25T13:42:57;8.43;;;3.20;;
3795;SDS011;1913;50.660;7.834;2023-04-25T13:45:23;7.07;;;2.93;;
3795;SDS011;1913;50.660;7.834;2023-04-25T13:47:48;9.90;;;2.80;;
3795;SDS011;1913;50.660;7.834;2023-04-25T13:50:14;5.13;;;2.60;;
3795;SDS011;1913;50.660;7.834;2023-04-25T13:52:40;11.23;;;2.53;;
3795;SDS011;1913;50.660;7.834;2023-04-25T13:55:06;6.00;;;2.60;;
3795;SDS011;1913;50.660;7.834;2023-04-25T13:57:33;8.63;;;2.10;;
3795;SDS011;1913;50.660;7.834;2023-04-25T13:59:59;8.10;;;2.27;;
3795;SDS011;1913;50.660;7.834;2023-04-25T14:02:29;7.47;;;2.13;;
3795;SDS011;1913;50.660;7.834;2023-04-25T14:04:55;4.43;;;2.13;;
3795;SDS011;1913;50.660;7.834;2023-04-25T14:07:21;6.17;;;3.30;;
3795;SDS011;1913;50.660;7.834;2023-04-25T14:09:46;8.20;;;2.17;;
3795;SDS011;1913;50.660;7.834;2023-04-25T14:12:12;7.83;;;2.50;;
3795;SDS011;1913;50.660;7.834;2023-04-25T14:14:38;6.70;;;2.57;;
3795;SDS011;1913;50.660;7.834;2023-04-25T14:17:03;7.07;;;2.00;;
3795;SDS011;1913;50.660;7.834;2023-04-25T14:19:29;5.17;;;2.00;;
3795;SDS011;1913;50.660;7.834;2023-04-25T14:21:54;5.03;;;2.10;;
3795;SDS011;1913;50.660;7.834;2023-04-25T14:24:20;5.93;;;4.00;;
3795;SDS011;1913;50.660;7.834;2023-04-25T14:26:46;5.97;;;2.70;;
3795;SDS011;1913;50.660;7.834;2023-04-25T14:29:11;11.10;;;3.17;;
3795;SDS011;1913;50.660;7.834;2023-04-25T14:31:37;5.13;;;2.10;;
3795;SDS011;1913;50.660;7.834;2023-04-25T14:34:06;4.80;;;2.30;;
3795;SDS011;1913;50.660;7.834;2023-04-25T14:36:33;7.70;;;2.60;;
3795;SDS011;1913;50.660;7.834;2023-04-25T14:38:59;5.27;;;2.30;;
3795;SDS011;1913;50.660;7.834;2023-04-25T14:41:25;8.03;;;2.60;;
3795;SDS011;1913;50.660;7.834;2023-04-25T14:43:51;4.53;;;2.83;;
3795;SDS011;1913;50.660;7.834;2023-04-25T14:46:18;9.87;;;3.03;;
3795;SDS011;1913;50.660;7.834;2023-04-25T14:48:44;4.70;;;2.33;;
3795;SDS011;1913;50.660;7.834;2023-04-25T14:51:10;5.03;;;2.30;;
3795;SDS011;1913;50.660;7.834;2023-04-25T14:53:36;8.63;;;2.47;;
3795;SDS011;1913;50.660;7.834;2023-04-25T14:56:01;8.10;;;3.17;;
3795;SDS011;1913;50.660;7.834;2023-04-25T14:58:27;4.77;;;2.20;;
3795;SDS011;1913;50.660;7.834;2023-04-25T15:00:52;6.67;;;2.30;;
3795;SDS011;1913;50.660;7.834;2023-04-25T15:03:18;5.47;;;2.60;;
3795;SDS011;1913;50.660;7.834;2023-04-25T15:05:43;11.20;;;3.27;;
3795;SDS011;1913;50.660;7.834;2023-04-25T15:08:09;4.60;;;2.03;;
3795;SDS011;1913;50.660;7.834;2023-04-25T15:10:35;6.77;;;2.40;;
3795;SDS011;1913;50.660;7.834;2023-04-25T15:13:01;5.83;;;2.17;;
3795;SDS011;1913;50.660;7.834;2023-04-25T15:15:26;5.97;;;2.30;;